Time;durP1;ratioP1;P1;durP2;ratioP2;P2;SDS_P1;SDS_P2;PMS_P1;PMS_P2;Temp;Humidity;BMP_temperature;BMP_pressure;BME280_temperature;BME280_humidity;BME280_pressure;Samples;Min_cycle;Max_cycle;Signal;HPM_P1;HPM_P2
2022/11/07 00:00:47;;;;;;;18.03;12.17;;;7.00;99.90;;;;;;5247512;28;20210;-47
2022/11/07 00:03:18;;;;;;;16.83;12.23;;;7.10;99.90;;;;;;5249670;28;20302;-49
2022/11/07 00:05:49;;;;;;;25.27;12.07;;;7.10;99.90;;;;;;5251219;28;20614;-47
2022/11/07 00:08:30;;;;;;;18.50;11.80;;;7.30;99.90;;;;;;5251239;28;20622;-46
2022/11/07 00:11:02;;;;;;;22.37;12.80;;;7.30;99.90;;;;;;5243232;28;20221;-47
2022/11/07 00:13:33;;;;;;;21.90;11.43;;;7.40;99.90;;;;;;5250271;28;20436;-47
2022/11/07 00:16:09;;;;;;;17.33;12.23;;;7.30;99.90;;;;;;5250366;28;20774;-46
2022/11/07 00:18:39;;;;;;;19.83;12.53;;;7.40;99.90;;;;;;5250504;28;20209;-47
2022/11/07 00:21:10;;;;;;;15.80;12.37;;;7.30;99.90;;;;;;5245228;28;20485;-46
2022/11/07 00:23:41;;;;;;;20.53;12.07;;;7.40;99.90;;;;;;5246215;28;20224;-46
2022/11/07 00:26:13;;;;;;;22.07;11.77;;;7.40;99.90;;;;;;5237930;28;20240;-50
2022/11/07 00:28:44;;;;;;;14.00;10.47;;;7.50;99.90;;;;;;5250663;28;20444;-46
2022/11/07 00:31:16;;;;;;;17.40;10.90;;;7.50;99.90;;;;;;5250267;28;20483;-46
2022/11/07 00:33:47;;;;;;;20.10;12.40;;;7.40;99.90;;;;;;5250107;28;20987;-46
2022/11/07 00:36:21;;;;;;;17.03;10.90;;;7.30;99.90;;;;;;5240235;28;20528;-46
2022/11/07 00:38:52;;;;;;;21.17;12.47;;;7.20;99.90;;;;;;5247378;28;20212;-48
2022/11/07 00:41:23;;;;;;;19.30;12.00;;;7.20;99.90;;;;;;5250179;28;20459;-47
2022/11/07 00:43:53;;;;;;;19.20;12.07;;;7.20;99.90;;;;;;5250153;28;20416;-47
2022/11/07 00:46:24;;;;;;;18.10;11.83;;;7.20;99.90;;;;;;5228346;28;20190;-47
2022/11/07 00:48:55;;;;;;;16.93;12.13;;;7.40;99.90;;;;;;5263327;28;20178;-47
2022/11/07 00:51:27;;;;;;;14.87;11.67;;;7.20;99.90;;;;;;5245373;28;20252;-46
2022/11/07 00:53:57;;;;;;;17.47;11.97;;;7.20;99.90;;;;;;5240951;28;20204;-46
2022/11/07 00:56:28;;;;;;;18.30;11.93;;;7.20;99.90;;;;;;5243066;28;20507;-46
2022/11/07 00:58:59;;;;;;;19.00;11.60;;;7.20;99.90;;;;;;5264094;28;20545;-46
2022/11/07 01:01:32;;;;;;;21.53;11.13;;;7.20;99.90;;;;;;5245689;28;20205;-46
2022/11/07 01:07:05;;;;;;;18.10;13.10;;;7.20;99.90;;;;;;5207042;28;20486;-45
2022/11/07 01:09:36;;;;;;;15.57;12.50;;;7.10;99.90;;;;;;5248721;28;20440;-47
2022/11/07 01:12:07;;;;;;;17.17;12.33;;;7.10;99.90;;;;;;5246071;28;20229;-47
2022/11/07 01:14:37;;;;;;;18.00;11.90;;;7.30;99.90;;;;;;5248696;28;20182;-46
2022/11/07 01:17:08;;;;;;;16.77;12.03;;;7.20;99.90;;;;;;5250572;28;20182;-47
2022/11/07 01:19:39;;;;;;;16.17;10.77;;;7.20;99.90;;;;;;5241959;28;20183;-47
2022/11/07 01:22:10;;;;;;;24.10;11.33;;;7.30;99.90;;;;;;5248709;28;20206;-45
2022/11/07 01:24:41;;;;;;;23.40;12.03;;;7.20;99.90;;;;;;5250038;28;20655;-46
2022/11/07 01:27:12;;;;;;;14.17;11.17;;;7.30;99.90;;;;;;5246790;28;20506;-46
2022/11/07 01:29:42;;;;;;;16.67;11.80;;;7.40;99.90;;;;;;5239811;28;20187;-46
2022/11/07 01:32:13;;;;;;;13.73;10.70;;;7.40;99.90;;;;;;5250659;28;20725;-46
2022/11/07 01:34:43;;;;;;;15.97;11.50;;;7.40;99.90;;;;;;5245594;28;20179;-47
2022/11/07 01:37:14;;;;;;;19.17;12.17;;;7.30;99.90;;;;;;5242221;28;20200;-46
2022/11/07 01:39:45;;;;;;;28.93;12.07;;;7.40;99.90;;;;;;5248046;28;20178;-46
2022/11/07 01:42:15;;;;;;;18.70;11.20;;;7.40;99.90;;;;;;5230047;28;20213;-47
2022/11/07 01:44:56;;;;;;;16.80;10.77;;;7.40;99.90;;;;;;5248892;28;20683;-45
2022/11/07 01:47:34;;;;;;;14.03;10.83;;;7.50;99.90;;;;;;5247514;28;20177;-48
2022/11/07 01:50:06;;;;;;;18.43;11.77;;;7.60;99.90;;;;;;5242689;28;20494;-47
2022/11/07 01:52:40;;;;;;;16.70;11.10;;;7.50;99.90;;;;;;5239931;28;20500;-47
2022/11/07 01:55:16;;;;;;;18.43;11.37;;;7.60;99.90;;;;;;5248160;28;20420;-46
2022/11/07 01:57:53;;;;;;;16.50;11.50;;;7.40;99.90;;;;;;5245025;28;20420;-46
2022/11/07 02:00:24;;;;;;;17.47;11.37;;;7.40;99.90;;;;;;5243623;28;20521;-47
2022/11/07 02:03:01;;;;;;;18.63;11.43;;;7.50;99.90;;;;;;5248992;28;20436;-48
2022/11/07 02:05:42;;;;;;;15.20;10.73;;;7.30;99.90;;;;;;5249251;28;20446;-47
2022/11/07 02:08:13;;;;;;;15.90;10.80;;;7.30;99.90;;;;;;5241202;28;20426;-51
2022/11/07 02:10:44;;;;;;;15.13;10.70;;;7.40;99.90;;;;;;5247666;28;20967;-47
2022/11/07 02:13:22;;;;;;;15.27;10.60;;;7.40;99.90;;;;;;5248413;28;20435;-48
2022/11/07 02:15:53;;;;;;;20.63;11.40;;;7.50;99.90;;;;;;5249007;28;20232;-49
2022/11/07 02:18:26;;;;;;;14.60;10.60;;;7.50;99.90;;;;;;5246644;28;20420;-47
2022/11/07 02:21:00;;;;;;;14.50;10.97;;;7.60;99.90;;;;;;5248237;28;20646;-47
2022/11/07 02:23:38;;;;;;;18.23;11.50;;;7.60;99.90;;;;;;5245523;28;20438;-49
2022/11/07 02:26:08;;;;;;;12.53;9.80;;;7.60;99.90;;;;;;5240197;28;20439;-49
2022/11/07 02:28:41;;;;;;;15.73;10.80;;;7.60;99.90;;;;;;5243760;28;21004;-48
2022/11/07 02:31:11;;;;;;;15.33;10.50;;;7.60;99.90;;;;;;5244935;28;20721;-48
2022/11/07 02:33:42;;;;;;;18.70;11.17;;;7.60;99.90;;;;;;5243584;28;20432;-48
2022/11/07 02:36:20;;;;;;;12.50;9.63;;;7.60;99.90;;;;;;5248496;28;20170;-48
2022/11/07 02:38:57;;;;;;;14.60;9.83;;;7.60;99.90;;;;;;5248148;28;20657;-48
2022/11/07 02:41:32;;;;;;;16.10;10.93;;;7.50;99.90;;;;;;5249223;28;20424;-48
2022/11/07 02:44:09;;;;;;;12.57;9.30;;;7.60;99.90;;;;;;5243284;28;20469;-49
2022/11/07 02:46:40;;;;;;;17.10;9.77;;;7.50;99.90;;;;;;5247696;28;20436;-48
2022/11/07 02:49:11;;;;;;;11.50;9.20;;;7.50;99.90;;;;;;5245912;28;20448;-49
2022/11/07 02:51:41;;;;;;;12.67;10.17;;;7.50;99.90;;;;;;5244594;28;20210;-47
2022/11/07 02:54:12;;;;;;;12.73;9.33;;;7.60;99.90;;;;;;5243927;28;20681;-47
2022/11/07 02:56:42;;;;;;;11.90;9.37;;;7.60;99.90;;;;;;5247559;28;20543;-51
2022/11/07 02:59:13;;;;;;;19.13;10.30;;;7.60;99.90;;;;;;5236217;28;20182;-49
2022/11/07 03:01:43;;;;;;;15.33;9.90;;;7.70;99.90;;;;;;5250799;28;20273;-46
2022/11/07 03:04:14;;;;;;;17.17;10.00;;;7.90;99.90;;;;;;5248281;28;20189;-48
2022/11/07 03:06:45;;;;;;;10.37;8.83;;;7.80;99.90;;;;;;5246921;28;20183;-48
2022/11/07 03:09:15;;;;;;;9.13;8.23;;;7.90;99.90;;;;;;5246384;28;20202;-48
2022/11/07 03:11:46;;;;;;;12.50;8.90;;;7.80;99.90;;;;;;5247511;28;20293;-47
2022/11/07 03:14:16;;;;;;;13.97;10.40;;;7.70;99.90;;;;;;5247699;28;20186;-48
2022/11/07 03:16:47;;;;;;;10.67;9.37;;;7.90;99.90;;;;;;5242908;28;20179;-48
2022/11/07 03:19:18;;;;;;;11.93;9.07;;;7.90;99.90;;;;;;5247170;28;20228;-49
2022/11/07 03:21:49;;;;;;;12.20;8.40;;;7.90;99.90;;;;;;5226939;28;20214;-47
2022/11/07 03:24:20;;;;;;;10.97;8.80;;;7.90;99.90;;;;;;5246200;28;20265;-47
2022/11/07 03:26:51;;;;;;;12.90;8.87;;;7.90;99.90;;;;;;5229340;28;20815;-47
2022/11/07 03:29:21;;;;;;;8.10;6.70;;;7.90;99.90;;;;;;5247163;28;20174;-47
2022/11/07 03:31:52;;;;;;;12.30;8.27;;;8.00;99.90;;;;;;5236273;28;20211;-46
2022/11/07 03:34:22;;;;;;;9.20;7.77;;;8.10;99.90;;;;;;5244605;28;20646;-48
2022/11/07 03:36:53;;;;;;;9.67;8.23;;;8.00;99.90;;;;;;5247045;28;20190;-48
2022/11/07 03:39:24;;;;;;;13.37;9.20;;;8.10;99.90;;;;;;5248583;28;20170;-48
2022/11/07 03:41:54;;;;;;;10.73;8.47;;;8.10;99.90;;;;;;5263551;28;20209;-47
2022/11/07 03:44:25;;;;;;;12.10;7.80;;;8.20;99.90;;;;;;5250639;28;20197;-48
2022/11/07 03:46:56;;;;;;;8.73;7.70;;;8.30;99.90;;;;;;5249368;28;20178;-49
2022/11/07 03:49:26;;;;;;;10.67;7.37;;;8.20;99.90;;;;;;5249983;28;20210;-47
2022/11/07 03:51:57;;;;;;;10.40;6.63;;;8.30;99.90;;;;;;5246445;28;20565;-47
2022/11/07 03:54:27;;;;;;;11.20;7.67;;;8.30;99.90;;;;;;5245321;28;20245;-48
2022/11/07 03:56:58;;;;;;;8.27;6.80;;;8.40;99.90;;;;;;5239029;28;20209;-47
2022/11/07 03:59:28;;;;;;;7.50;6.33;;;8.40;99.90;;;;;;5249834;28;20174;-47
2022/11/07 04:01:59;;;;;;;9.87;7.93;;;8.40;99.90;;;;;;5249290;28;20202;-47
2022/11/07 04:04:29;;;;;;;8.97;7.80;;;8.50;99.90;;;;;;5248729;28;20186;-47
2022/11/07 04:07:00;;;;;;;9.77;7.40;;;8.50;99.90;;;;;;5251384;28;20185;-45
2022/11/07 04:09:31;;;;;;;10.10;7.03;;;8.50;99.90;;;;;;5244672;28;20183;-49
2022/11/07 04:17:40;;;;;;;9.83;7.30;;;8.60;99.90;;;;;;5247205;28;20420;-47
2022/11/07 04:20:11;;;;;;;9.37;7.03;;;8.70;99.90;;;;;;5252562;28;20455;-46
2022/11/07 04:22:41;;;;;;;10.40;7.30;;;8.70;99.90;;;;;;5255275;28;20654;-46
2022/11/07 04:25:12;;;;;;;7.33;6.63;;;8.60;99.90;;;;;;5254302;28;20207;-46
2022/11/07 04:27:43;;;;;;;8.93;6.80;;;8.70;99.90;;;;;;5245907;28;20198;-49
2022/11/07 04:30:17;;;;;;;10.53;7.17;;;8.70;99.90;;;;;;5248812;28;20167;-46
2022/11/07 04:32:49;;;;;;;7.47;6.77;;;8.60;99.90;;;;;;5249594;28;20294;-46
2022/11/07 04:35:21;;;;;;;8.70;7.30;;;8.60;99.90;;;;;;5251969;28;20416;-46
2022/11/07 04:37:52;;;;;;;6.63;6.03;;;8.60;99.90;;;;;;5251282;28;20435;-47
2022/11/07 04:40:23;;;;;;;10.30;7.80;;;8.60;99.90;;;;;;5250834;28;20452;-47
2022/11/07 04:42:54;;;;;;;10.10;7.73;;;8.60;99.90;;;;;;5244252;28;20178;-46
2022/11/07 04:45:24;;;;;;;7.07;6.37;;;8.60;99.90;;;;;;5249310;28;20186;-45
2022/11/07 04:47:55;;;;;;;6.57;5.87;;;8.60;99.90;;;;;;5251038;28;20420;-49
2022/11/07 04:50:25;;;;;;;8.70;7.07;;;8.60;99.90;;;;;;5243953;28;20373;-48
2022/11/07 04:52:56;;;;;;;9.10;6.83;;;8.60;99.90;;;;;;5247501;28;20277;-47
2022/11/07 04:55:29;;;;;;;7.00;5.87;;;8.60;99.90;;;;;;5249477;28;20676;-46
2022/11/07 04:58:00;;;;;;;6.60;5.90;;;8.70;99.90;;;;;;5246285;28;20246;-45
2022/11/07 05:00:30;;;;;;;6.90;6.00;;;8.70;99.90;;;;;;5239280;28;20492;-46
2022/11/07 05:03:01;;;;;;;7.17;5.87;;;8.60;99.90;;;;;;5251872;28;20185;-46
2022/11/07 05:05:31;;;;;;;7.47;6.20;;;8.70;99.90;;;;;;5250256;28;20194;-46
2022/11/07 05:08:02;;;;;;;9.03;7.67;;;8.70;99.90;;;;;;5238253;28;20273;-46
2022/11/07 05:10:33;;;;;;;7.10;6.40;;;8.70;99.90;;;;;;5232484;28;20206;-45
2022/11/07 05:13:04;;;;;;;6.47;5.97;;;8.70;99.90;;;;;;5251041;28;20252;-46
2022/11/07 05:15:35;;;;;;;8.13;6.73;;;8.70;99.90;;;;;;5248812;28;20456;-50
2022/11/07 05:18:05;;;;;;;6.90;6.10;;;8.70;99.90;;;;;;5248756;28;20225;-50
2022/11/07 05:20:37;;;;;;;5.97;5.47;;;8.70;99.90;;;;;;5249536;28;20655;-51
2022/11/07 05:23:11;;;;;;;10.73;7.10;;;8.70;99.90;;;;;;5248524;28;20217;-47
2022/11/07 05:25:49;;;;;;;8.70;6.20;;;8.70;99.90;;;;;;5248280;28;20786;-46
2022/11/07 05:28:22;;;;;;;6.80;6.10;;;8.80;99.90;;;;;;5239359;28;20440;-47
2022/11/07 05:30:56;;;;;;;6.73;5.60;;;8.70;99.90;;;;;;5245984;28;20499;-47
2022/11/07 05:33:27;;;;;;;7.50;5.93;;;8.80;99.90;;;;;;5242153;28;20490;-46
2022/11/07 05:36:08;;;;;;;6.63;6.00;;;8.80;99.90;;;;;;5250418;28;20416;-46
2022/11/07 05:38:40;;;;;;;7.07;5.83;;;8.80;99.90;;;;;;5249742;28;20408;-47
2022/11/07 05:41:13;;;;;;;7.33;5.73;;;8.80;99.90;;;;;;5240694;28;20447;-46
2022/11/07 05:43:43;;;;;;;6.50;5.70;;;8.80;99.90;;;;;;5247912;28;20424;-48
2022/11/07 05:46:14;;;;;;;5.80;5.30;;;8.80;99.90;;;;;;5248862;28;20520;-47
2022/11/07 05:48:44;;;;;;;7.80;6.13;;;8.80;99.90;;;;;;5240221;28;20174;-46
2022/11/07 05:51:15;;;;;;;6.87;6.07;;;8.80;99.90;;;;;;5244932;28;20267;-46
2022/11/07 05:53:46;;;;;;;6.90;5.53;;;8.80;99.90;;;;;;5249980;28;20584;-45
2022/11/07 05:56:16;;;;;;;13.70;6.10;;;8.90;99.90;;;;;;5246179;28;20678;-46
2022/11/07 05:58:47;;;;;;;6.07;5.47;;;8.90;99.90;;;;;;5251245;28;20181;-46
2022/11/07 06:01:17;;;;;;;21.10;5.70;;;8.90;99.90;;;;;;5240011;28;20209;-45
2022/11/07 06:03:48;;;;;;;5.13;4.60;;;8.90;99.90;;;;;;5241973;28;20182;-46
2022/11/07 06:06:18;;;;;;;5.73;5.20;;;8.90;99.90;;;;;;5246606;28;20273;-46
2022/11/07 06:08:49;;;;;;;6.10;5.40;;;8.90;99.90;;;;;;5247485;28;20186;-45
2022/11/07 06:11:19;;;;;;;5.63;5.13;;;8.90;99.90;;;;;;5238605;28;20202;-46
2022/11/07 06:13:52;;;;;;;7.70;5.80;;;8.90;99.90;;;;;;5238397;28;20179;-46
2022/11/07 06:16:22;;;;;;;5.10;4.70;;;8.90;99.90;;;;;;5245135;28;20182;-46
2022/11/07 06:18:53;;;;;;;5.80;5.27;;;8.90;99.90;;;;;;5232526;28;20464;-46
2022/11/07 06:21:23;;;;;;;5.13;4.73;;;8.90;99.90;;;;;;5246711;28;20199;-46
2022/11/07 06:23:54;;;;;;;5.60;5.10;;;8.90;99.90;;;;;;5247440;28;20190;-47
2022/11/07 06:26:25;;;;;;;5.13;4.77;;;8.90;99.90;;;;;;5235791;28;20183;-49
2022/11/07 06:28:56;;;;;;;6.03;5.50;;;8.90;99.90;;;;;;5237496;28;20179;-50
2022/11/07 06:31:26;;;;;;;4.83;4.47;;;8.90;99.90;;;;;;5244312;28;20517;-48
2022/11/07 06:33:57;;;;;;;5.73;5.23;;;8.90;99.90;;;;;;5247426;28;20590;-46
2022/11/07 06:36:28;;;;;;;4.93;4.37;;;9.00;99.90;;;;;;5238357;28;20266;-46
2022/11/07 06:39:16;;;;;;;9.10;4.27;;;8.90;99.90;;;;;;5239799;28;20182;-52
2022/11/07 06:41:48;;;;;;;5.50;4.90;;;9.00;99.90;;;;;;5230681;28;20690;-45
2022/11/07 06:44:18;;;;;;;4.90;4.50;;;9.00;99.90;;;;;;5243922;28;20436;-46
2022/11/07 06:46:49;;;;;;;5.23;4.80;;;9.10;99.90;;;;;;5247051;28;20443;-46
2022/11/07 06:49:19;;;;;;;4.00;3.70;;;9.10;99.90;;;;;;5246191;28;20181;-47
2022/11/07 06:51:50;;;;;;;4.97;4.47;;;9.10;99.90;;;;;;5233157;28;20252;-46
2022/11/07 06:54:20;;;;;;;6.10;4.63;;;9.10;99.90;;;;;;5232256;28;20182;-49
2022/11/07 06:56:51;;;;;;;4.50;4.20;;;9.10;99.90;;;;;;5234698;28;20255;-48
2022/11/07 06:59:21;;;;;;;4.80;4.40;;;9.20;99.90;;;;;;5241437;28;20281;-50
2022/11/07 07:01:52;;;;;;;4.83;4.30;;;9.20;99.90;;;;;;5228497;28;20556;-49
2022/11/07 07:04:22;;;;;;;7.57;4.97;;;9.20;99.90;;;;;;5238395;28;20543;-49
2022/11/07 07:06:53;;;;;;;5.13;3.97;;;9.30;99.90;;;;;;5235038;28;20243;-49
2022/11/07 07:09:24;;;;;;;4.37;3.90;;;9.30;99.90;;;;;;5226709;28;20268;-50
2022/11/07 07:11:54;;;;;;;4.33;3.97;;;9.30;99.90;;;;;;5233819;28;20301;-47
2022/11/07 07:14:25;;;;;;;3.93;3.63;;;9.40;99.90;;;;;;5238644;28;20186;-48
2022/11/07 07:16:57;;;;;;;3.63;3.43;;;9.50;99.90;;;;;;5241586;28;20178;-49
2022/11/07 07:19:28;;;;;;;4.70;4.27;;;9.40;99.90;;;;;;5234251;28;20179;-47
2022/11/07 07:21:58;;;;;;;4.40;4.10;;;9.50;99.90;;;;;;5231249;28;20444;-47
2022/11/07 07:24:29;;;;;;;4.37;4.07;;;9.50;99.90;;;;;;5243443;28;20234;-47
2022/11/07 07:26:59;;;;;;;4.83;4.33;;;9.50;99.90;;;;;;5237229;28;20178;-47
2022/11/07 07:29:30;;;;;;;3.80;3.50;;;9.60;99.90;;;;;;5241095;28;20182;-49
2022/11/07 07:32:00;;;;;;;4.63;3.80;;;9.70;99.90;;;;;;5234312;28;20213;-49
2022/11/07 07:34:31;;;;;;;8.80;4.50;;;9.80;99.90;;;;;;5235912;28;20185;-48
2022/11/07 07:37:02;;;;;;;3.60;3.40;;;9.90;99.90;;;;;;5242908;28;20185;-49
2022/11/07 07:39:32;;;;;;;3.80;3.50;;;9.90;99.90;;;;;;5234386;28;20183;-48
2022/11/07 07:42:03;;;;;;;4.47;4.10;;;10.00;99.90;;;;;;5239353;28;20228;-50
2022/11/07 07:44:34;;;;;;;4.33;4.03;;;10.10;99.90;;;;;;5239608;28;20610;-48
2022/11/07 07:47:05;;;;;;;7.50;5.60;;;10.10;99.90;;;;;;5238288;28;20183;-47
2022/11/07 07:49:36;;;;;;;7.63;6.83;;;10.20;99.90;;;;;;5240656;28;20429;-49
2022/11/07 07:52:06;;;;;;;8.27;5.93;;;10.20;99.90;;;;;;5235786;28;20306;-47
2022/11/07 07:54:37;;;;;;;28.80;15.50;;;10.20;99.90;;;;;;5239899;28;20270;-50
2022/11/07 07:57:07;;;;;;;18.77;9.93;;;10.30;99.90;;;;;;5239639;28;20182;-48
2022/11/07 07:59:38;;;;;;;8.63;6.00;;;10.20;99.90;;;;;;5244904;28;20186;-48
2022/11/07 08:02:10;;;;;;;6.23;5.63;;;10.30;99.90;;;;;;5237999;28;20218;-48
2022/11/07 08:04:41;;;;;;;6.20;5.40;;;10.40;99.90;;;;;;5228060;28;20183;-48
2022/11/07 08:07:12;;;;;;;6.30;4.00;;;10.30;99.90;;;;;;5227626;28;20974;-47
2022/11/07 08:09:42;;;;;;;4.20;3.90;;;10.20;99.90;;;;;;5232186;28;20187;-49
2022/11/07 08:12:13;;;;;;;4.33;3.83;;;10.20;99.90;;;;;;5244554;28;20752;-48
2022/11/07 08:14:43;;;;;;;5.70;4.97;;;10.10;99.90;;;;;;5242497;28;20174;-49
2022/11/07 08:17:14;;;;;;;4.70;3.30;;;10.10;99.90;;;;;;5233381;28;20178;-49
2022/11/07 08:19:44;;;;;;;3.47;3.17;;;10.20;99.90;;;;;;5233573;28;20205;-48
2022/11/07 08:22:15;;;;;;;3.70;3.50;;;10.20;99.90;;;;;;5237624;28;20199;-49
2022/11/07 08:24:45;;;;;;;3.30;3.00;;;10.30;99.90;;;;;;5237672;28;20191;-48
2022/11/07 08:27:16;;;;;;;7.50;3.17;;;10.40;99.90;;;;;;5247351;28;20201;-48
2022/11/07 08:29:46;;;;;;;6.00;3.13;;;10.50;99.90;;;;;;5243487;28;20686;-48
2022/11/07 08:32:17;;;;;;;4.07;3.60;;;10.60;99.90;;;;;;5236452;28;20704;-49
2022/11/07 08:34:47;;;;;;;2.83;2.57;;;10.70;99.90;;;;;;5233848;28;20171;-49
2022/11/07 08:37:18;;;;;;;3.97;2.80;;;10.70;99.90;;;;;;5244828;28;20202;-48
2022/11/07 08:39:49;;;;;;;3.33;3.03;;;10.60;99.90;;;;;;5247588;28;20685;-50
2022/11/07 08:42:19;;;;;;;5.43;3.17;;;10.60;99.90;;;;;;5248251;28;20245;-47
2022/11/07 08:44:50;;;;;;;3.50;3.20;;;10.60;99.90;;;;;;5237527;28;20186;-48
2022/11/07 08:47:20;;;;;;;3.93;2.80;;;10.60;99.90;;;;;;5248081;28;20179;-46
2022/11/07 08:49:51;;;;;;;4.50;3.53;;;10.70;99.90;;;;;;5250334;28;20197;-49
2022/11/07 08:52:21;;;;;;;4.57;2.93;;;11.00;99.90;;;;;;5228283;28;20210;-49
2022/11/07 08:54:52;;;;;;;3.00;2.73;;;11.30;99.90;;;;;;5238074;28;20187;-47
2022/11/07 08:57:22;;;;;;;3.50;2.50;;;11.40;99.90;;;;;;5244847;28;20186;-48
2022/11/07 08:59:53;;;;;;;2.23;2.03;;;11.50;99.90;;;;;;5236162;28;20175;-46
2022/11/07 09:02:24;;;;;;;4.67;2.70;;;11.70;99.90;;;;;;5241740;28;20551;-49
2022/11/07 09:04:54;;;;;;;2.73;2.60;;;11.80;99.90;;;;;;5231410;28;20613;-50
2022/11/07 09:07:25;;;;;;;2.43;2.23;;;11.90;99.90;;;;;;5229858;28;20190;-47
2022/11/07 09:09:55;;;;;;;6.43;2.40;;;11.90;99.90;;;;;;5232652;28;20229;-48
2022/11/07 09:12:26;;;;;;;5.60;3.13;;;12.00;99.90;;;;;;5238820;28;20601;-50
2022/11/07 09:14:56;;;;;;;5.20;3.03;;;12.10;99.90;;;;;;5237235;28;20604;-48
2022/11/07 09:17:27;;;;;;;2.67;2.23;;;12.10;99.90;;;;;;5235307;28;20580;-48
2022/11/07 09:19:58;;;;;;;11.10;3.00;;;12.20;99.90;;;;;;5233847;28;20195;-48
2022/11/07 09:22:28;;;;;;;2.93;2.67;;;12.30;99.90;;;;;;5238159;28;20651;-47
2022/11/07 09:24:59;;;;;;;4.30;2.00;;;12.30;99.90;;;;;;5241278;28;20252;-48
2022/11/07 09:27:29;;;;;;;2.23;2.03;;;12.50;99.90;;;;;;5231483;28;20187;-48
2022/11/07 09:30:00;;;;;;;2.30;2.20;;;12.50;99.90;;;;;;5238283;28;20183;-47
2022/11/07 09:32:30;;;;;;;2.03;1.93;;;12.60;99.90;;;;;;5240446;28;20214;-49
2022/11/07 09:35:01;;;;;;;2.43;2.20;;;12.70;99.90;;;;;;5231412;28;20439;-50
2022/11/07 09:37:32;;;;;;;1.70;1.60;;;12.90;99.90;;;;;;5235024;28;20194;-48
2022/11/07 09:40:02;;;;;;;2.10;2.00;;;13.10;99.90;;;;;;5231594;28;20248;-48
2022/11/07 09:43:14;;;;;;;8.03;2.07;;;13.40;99.90;;;;;;5240282;28;20203;-48
2022/11/07 09:46:04;;;;;;;1.97;1.90;;;13.40;99.90;;;;;;5228310;28;20222;-49
2022/11/07 09:48:46;;;;;;;2.67;2.30;;;13.40;99.90;;;;;;5235321;28;20441;-47
2022/11/07 09:51:38;;;;;;;4.70;2.27;;;13.50;99.90;;;;;;5232739;28;20460;-48
2022/11/07 09:54:19;;;;;;;4.63;2.33;;;13.50;99.90;;;;;;5239369;28;20433;-51
2022/11/07 09:56:50;;;;;;;4.53;2.10;;;13.60;99.90;;;;;;5243719;28;20472;-48
2022/11/07 09:59:35;;;;;;;2.40;2.27;;;13.70;99.90;;;;;;5242499;28;20546;-49
2022/11/07 10:02:13;;;;;;;7.63;2.13;;;13.80;99.90;;;;;;5242201;28;20480;-49
2022/11/07 10:04:45;;;;;;;1.97;1.80;;;14.00;99.90;;;;;;5244488;28;20428;-48
2022/11/07 10:07:30;;;;;;;2.20;2.10;;;14.00;99.90;;;;;;5242232;28;20511;-49
2022/11/07 10:10:38;;;;;;;11.60;2.67;;;13.90;99.90;;;;;;5232319;28;20437;-48
2022/11/07 10:13:14;;;;;;;1.87;1.70;;;13.90;99.90;;;;;;5234751;28;20484;-48
2022/11/07 10:16:10;;;;;;;2.70;2.17;;;13.70;99.90;;;;;;5239163;28;20437;-48
2022/11/07 10:18:55;;;;;;;1.97;1.87;;;13.50;99.90;;;;;;5235886;28;20797;-48
2022/11/07 10:21:31;;;;;;;2.23;1.70;;;13.40;99.90;;;;;;5237535;28;20831;-47
2022/11/07 10:24:10;;;;;;;2.13;1.60;;;13.30;99.90;;;;;;5244270;28;20553;-46
2022/11/07 10:26:43;;;;;;;2.07;1.87;;;13.20;99.90;;;;;;5228520;28;20845;-47
2022/11/07 10:29:19;;;;;;;2.03;1.90;;;13.10;99.90;;;;;;5230823;28;20460;-47
2022/11/07 10:32:14;;;;;;;1.93;1.80;;;13.20;99.90;;;;;;5240423;28;20445;-47
2022/11/07 10:35:16;;;;;;;1.40;1.30;;;13.10;99.90;;;;;;5228137;28;20416;-46
2022/11/07 10:37:54;;;;;;;5.00;2.00;;;13.10;99.90;;;;;;5225241;28;20789;-50
2022/11/07 10:40:32;;;;;;;1.87;1.77;;;13.20;99.90;;;;;;5229516;28;20851;-48
2022/11/07 10:43:06;;;;;;;3.70;2.20;;;13.20;99.90;;;;;;5237281;28;20429;-48
2022/11/07 10:45:38;;;;;;;3.70;1.80;;;13.20;99.90;;;;;;5237550;28;21018;-46
2022/11/07 10:48:13;;;;;;;3.50;1.73;;;13.20;99.90;;;;;;5243056;28;20443;-47
2022/11/07 10:50:51;;;;;;;1.57;1.47;;;13.10;99.90;;;;;;5234491;28;20811;-48
2022/11/07 10:53:24;;;;;;;2.63;1.60;;;13.20;99.90;;;;;;5253748;28;20867;-49
2022/11/07 10:55:54;;;;;;;1.73;1.33;;;13.10;99.90;;;;;;5231989;28;20467;-50
2022/11/07 10:58:34;;;;;;;2.20;2.00;;;13.20;99.90;;;;;;5254633;28;20456;-48
2022/11/07 11:01:07;;;;;;;6.13;1.80;;;13.30;99.90;;;;;;5243477;28;20202;-49
2022/11/07 11:03:43;;;;;;;1.93;1.83;;;13.30;99.90;;;;;;5242199;28;20441;-49
2022/11/07 11:06:17;;;;;;;6.87;2.80;;;13.50;99.90;;;;;;5243387;28;20434;-48
2022/11/07 11:08:50;;;;;;;7.00;2.40;;;13.50;99.90;;;;;;5230225;28;20444;-47
2022/11/07 11:11:26;;;;;;;4.17;1.93;;;13.60;99.90;;;;;;5237150;28;20484;-49
2022/11/07 11:14:09;;;;;;;2.20;1.97;;;13.80;99.90;;;;;;5241209;28;20423;-47
2022/11/07 11:16:41;;;;;;;3.77;2.10;;;13.90;99.90;;;;;;5227462;28;20826;-47
2022/11/07 11:19:40;;;;;;;4.43;2.20;;;13.90;99.90;;;;;;5233594;28;20437;-48
2022/11/07 11:22:16;;;;;;;3.30;2.87;;;14.00;99.90;;;;;;5236268;28;20449;-49
2022/11/07 11:25:01;;;;;;;2.63;1.57;;;14.20;99.90;;;;;;5239729;28;20495;-47
2022/11/07 11:27:33;;;;;;;2.60;1.90;;;14.30;99.90;;;;;;5239590;28;20946;-47
2022/11/07 11:30:12;;;;;;;4.00;1.60;;;14.20;99.90;;;;;;5226962;28;20437;-50
2022/11/07 11:32:57;;;;;;;4.93;2.87;;;14.30;99.90;;;;;;5244340;28;20459;-49
2022/11/07 11:35:36;;;;;;;4.10;1.87;;;14.20;99.90;;;;;;5230038;28;20623;-48
2022/11/07 11:38:21;;;;;;;3.27;2.20;;;14.10;99.90;;;;;;5229182;28;20772;-49
2022/11/07 11:40:57;;;;;;;3.63;3.33;;;14.00;99.90;;;;;;5227044;28;20854;-48
2022/11/07 11:44:11;;;;;;;5.33;2.83;;;13.90;99.90;;;;;;5235846;28;20479;-49
2022/11/07 11:46:54;;;;;;;4.70;2.23;;;14.00;99.90;;;;;;5159830;28;20476;-48
2022/11/07 11:49:42;;;;;;;7.60;2.50;;;14.00;99.90;;;;;;5222783;28;20480;-50
2022/11/07 11:52:21;;;;;;;4.33;3.10;;;14.00;99.90;;;;;;5227885;28;20469;-48
2022/11/07 11:54:55;;;;;;;8.93;2.37;;;14.00;99.90;;;;;;5235291;28;20436;-50
2022/11/07 11:57:34;;;;;;;2.67;2.47;;;14.00;99.90;;;;;;5241835;28;20627;-50
2022/11/07 12:00:19;;;;;;;6.53;3.33;;;14.10;99.90;;;;;;5245951;28;20438;-49
2022/11/07 12:03:06;;;;;;;2.00;1.83;;;14.20;99.90;;;;;;5238985;28;20762;-49
2022/11/07 12:06:01;;;;;;;2.80;2.03;;;14.20;99.90;;;;;;5247535;28;20431;-49
2022/11/07 12:09:01;;;;;;;2.33;2.13;;;14.20;99.90;;;;;;5248448;28;20449;-49
2022/11/07 12:11:47;;;;;;;12.60;3.70;;;14.20;99.90;;;;;;5247509;28;20471;-50
2022/11/07 12:14:44;;;;;;;1.70;1.60;;;14.30;99.90;;;;;;5231011;28;20536;-50
2022/11/07 12:17:34;;;;;;;1.80;1.70;;;14.30;99.90;;;;;;5243745;28;20420;-49
2022/11/07 12:20:33;;;;;;;7.53;1.90;;;14.40;99.90;;;;;;5236332;28;20416;-50
2022/11/07 12:23:26;;;;;;;8.50;2.60;;;14.50;99.90;;;;;;5238701;28;20436;-50
2022/11/07 12:26:12;;;;;;;8.23;2.60;;;14.60;99.90;;;;;;5242247;28;20916;-48
2022/11/07 12:28:47;;;;;;;4.93;1.63;;;14.50;99.90;;;;;;5249757;28;20832;-49
2022/11/07 12:31:24;;;;;;;3.20;1.43;;;14.60;99.90;;;;;;5245350;28;20453;-49
2022/11/07 12:34:22;;;;;;;2.83;1.70;;;14.50;99.90;;;;;;5242003;28;20432;-49
2022/11/07 12:37:18;;;;;;;3.23;2.67;;;14.50;99.90;;;;;;5234369;28;20433;-50
2022/11/07 12:40:03;;;;;;;4.13;1.70;;;14.70;99.90;;;;;;5235870;28;20921;-48
2022/11/07 12:42:57;;;;;;;1.83;1.70;;;14.50;99.90;;;;;;5241401;28;20444;-50
2022/11/07 12:45:47;;;;;;;4.83;1.80;;;14.40;99.90;;;;;;5236674;28;20448;-49
2022/11/07 12:48:29;;;;;;;6.17;2.23;;;14.50;99.90;;;;;;5237481;28;20799;-51
2022/11/07 12:51:24;;;;;;;3.90;2.47;;;14.50;99.90;;;;;;5232615;28;20468;-49
2022/11/07 12:54:25;;;;;;;4.00;1.97;;;14.50;99.90;;;;;;5241306;28;20456;-50
2022/11/07 12:56:57;;;;;;;2.70;1.70;;;14.40;99.90;;;;;;5236353;28;20436;-52
2022/11/07 12:59:30;;;;;;;1.43;1.43;;;14.40;99.90;;;;;;5245441;28;20512;-51
2022/11/07 13:02:32;;;;;;;3.90;3.10;;;14.30;99.90;;;;;;5235050;28;20813;-50
2022/11/07 13:05:47;;;;;;;3.80;2.90;;;14.20;99.90;;;;;;5227099;28;20429;-49
2022/11/07 13:08:30;;;;;;;3.00;2.00;;;14.20;99.90;;;;;;5257967;28;20482;-49
2022/11/07 13:11:23;;;;;;;5.10;1.80;;;14.40;99.90;;;;;;5237123;28;20452;-49
2022/11/07 13:14:18;;;;;;;2.93;2.27;;;14.30;99.90;;;;;;5248801;28;20436;-51
2022/11/07 13:17:12;;;;;;;4.73;1.73;;;14.30;99.90;;;;;;5240722;28;20425;-50
2022/11/07 13:20:02;;;;;;;2.30;1.90;;;14.30;99.90;;;;;;5229774;28;20793;-49
2022/11/07 13:22:38;;;;;;;3.47;2.07;;;14.30;99.90;;;;;;5246123;28;20425;-49
2022/11/07 13:25:15;;;;;;;5.37;2.13;;;14.40;99.90;;;;;;5247405;28;20424;-49
2022/11/07 13:28:21;;;;;;;3.50;2.57;;;14.30;99.90;;;;;;5244380;28;20428;-49
2022/11/07 13:30:58;;;;;;;4.87;3.50;;;14.30;99.90;;;;;;5245228;28;20463;-49
2022/11/07 13:33:31;;;;;;;6.53;3.67;;;14.30;99.90;;;;;;5236911;28;20463;-49
2022/11/07 13:36:24;;;;;;;2.10;1.90;;;14.40;99.90;;;;;;5234610;28;20441;-49